Share

Forman, ND (58032)

5:55 PM CDT on April 23, 2014 (GMT -0500)
Gwinner-melroe (KGWR) Elev 1266 ft | 46.22 °N, 97.64 °W | Change Station
Active Advisory: Wind Advisory

Current weather conditions updated 20 minutes ago

Overcast
Overcast
43 °F
Feels Like 33 °F
N
24
Wind Variable Wind from ESE
Gusts 34 mph
Sunrise 6:30 AM
Sunset 8:28 PM
Moon Waning Crescent

Tomorrow is forecast to be Much Warmer than today.

Pressure 29.74 in
Visibility 10.0 miles
Clouds Few 1500 ft
Overcast 5000 ft
Windchill 33 °F
Dew Point 41 °F
Humidity 93%
Rainfall 0.15 in
Snow Depth Not available.
UV 1 out of 16
Pollen 7.60 out of 12
Air Quality Not available.
Flu Activity Sporadic
METAR KGWR 232235Z AUTO 12021G30KT 10SM FEW015 OVC050 06/05 A2974 RMK A01 P000

More Conditions Fewer Conditions

Pressure 29.74 in
Visibility 10.0 miles
Clouds Few 1500 ft
Overcast 5000 ft
Windchill 33 °F
Dew Point 41 °F
Humidity 93%
Rainfall 0.15 in
Snow Depth Not available.
UV 1 out of 16
Pollen 7.60 out of 12
Air Quality Not available.
Flu Activity Sporadic
METAR KGWR 232235Z AUTO 12021G30KT 10SM FEW015 OVC050 06/05 A2974 RMK A01 P000

More Conditions Fewer Conditions

10-Day Weather Forecast

Almanac

Astronomy

Apr. 23, 2014 Rise Set
Actual Time 6:30 AM CDT 8:28 PM CDT
Civil Twilight 5:57 AM CDT 9:00 PM CDT
Nautical Twilight 5:18 AM CDT 9:40 PM CDT
Astronomical Twilight 4:34 AM CDT 10:24 PM CDT
Moon 3:23 AM CDT 2:19 PM CDT
Length of Visible Light 15h 02m
Length of Day
13h 58m
Tomorrow will be 3m 0s longer.
Waning Crescent, 32% of the Moon is Illuminated
Today
Waning Crescent
Apr 29
New
May 6
First Quarter
May 14
Full
May 21
Last Quarter

Today's Extremes

State Highs State Lows

Community

  • Stunning Sunrise
    Stunning Sunrise
  • spring flowers
    spring flowers
  • Earth Day Spectrum Ove' Blue
    Earth Day Spectrum Ove' Blue
  • BARN B&W
    BARN B&W
  • FROM OUT OF DAWN THIS MORNING/
    FROM OUT OF DAWN THIS MORNING/

WunderPhotos

Upload Photos

1,704,442 photos uploaded!

WunderBlogs® & News

Nearby

Snow Depth

Station Depth Elevation
No new snow has been reported.

Coastal Water Temperatures

Place Temperature
No Stations Reporting

Earthquake Activity

City Distance Mag. Time & Date
No recent earthquake activity has been reported nearby.
Minimum magnitude displayed is 2.5.

Nearby Weather Stations

Station Location Temp. Windchill Dew Point Humidity Wind Precip. Elev Updated Type
Newark, Britton, SD 44.0 °F 41 °F 38 °F 78% NE  at  6.0 mph 0.00 in / hr 1306 ft 5:55 PM CDT Normal
RAWS MARSHALL CO SD, Lake City, SD 40 °F 40 °F 40 °F 100% North  at  0 mph 0.01 in / hr 2009 ft 4:59 PM CDT MADIS

Show More Stations Show Fewer Stations

What do you think?

We're not finished. Please let us know what you like, what you don't like, and what you are still missing.